Pagrindinis puslapis
METAR-TAF:

METAR-TAF

Oro uostai :

Berlynas, Vokietija

platuma: 52-34N, ilguma: 013-19E, Aukštis: 37 m

Dabartinis oras

Ataskaita buvo paskelbta 10 minutes, ne 09:20 UTC
Vėjas 6 kt iš Vakarų, svyruoja nuo Vakarų/Pietvakarių ir Šiaurės/Šiaurės Vakarų
Temperatūra 14°C
Drėgmė 67%
Slėgis 1028 hPa
Matomumas 10 km arba daugiau
Mažai debesys ne aukštis 2000 ft

METAR: EDDT 200920Z 28006KT 240V330 9999 FEW020 14/08 Q1028 NOSIG

Laikas: 11:30 (09:30 UTC)

Prognozė

Ataskaita buvo paskelbta 4 valandos ir 30 minutes, ne 05:00 UTC
Prognozė galioja nuo 20 metu 06 UTC su 21 metu 06 UTC
Vėjas 5 kt iš Vakarų
Matomumas 10 km arba daugiau
Mažai debesys ne aukštis 3500 ft

TAF: EDDT 200500Z 2006/2106 27005KT 9999 FEW035

Orai ataskaitas ir orų prognozės (METAR, TAF).

turimą stotys yra geltonos ir raudonos taškus žemėlapyje.

Perkelti pele per norėdami pamatyti stoties vardą.

Tada spustelėkite, norėdami matyti oro stebėjimo ir prognozės.

Norėdami pakeisti žemėlapį: spustelėkite ant žalios mygtukų su juodo kryžiaus žemyn,; žalią mygtuką su brūkšneliu, jei norite nutolinti; arba žalių rodyklių gretimoms žemėlapius.


METAR-TAF: